createdAt,value
2023-01-19T00:00:00.782Z,3.60
2023-01-19T00:02:27.339Z,3.00
2023-01-19T00:04:53.855Z,2.80
2023-01-19T00:07:20.436Z,2.92
2023-01-19T00:09:46.977Z,2.67
2023-01-19T00:12:13.572Z,2.55
2023-01-19T00:14:40.165Z,2.20
2023-01-19T00:17:07.259Z,2.50
2023-01-19T00:19:33.861Z,2.72
2023-01-19T00:22:00.449Z,2.25
2023-01-19T00:24:27.045Z,2.53
2023-01-19T00:26:53.514Z,2.45
2023-01-19T00:29:24.048Z,2.40
2023-01-19T00:31:50.728Z,2.15
2023-01-19T00:34:17.368Z,2.60
2023-01-19T00:36:43.942Z,2.33
2023-01-19T00:39:10.530Z,2.30
2023-01-19T00:41:55.560Z,2.42
2023-01-19T00:44:22.123Z,2.15
2023-01-19T00:46:48.661Z,2.13
2023-01-19T00:49:15.187Z,1.98
2023-01-19T00:51:41.819Z,2.08
2023-01-19T00:54:10.373Z,1.95
2023-01-19T00:56:37.547Z,1.80
2023-01-19T00:59:05.070Z,2.10
2023-01-19T01:01:46.205Z,1.60
2023-01-19T01:04:13.614Z,2.00
2023-01-19T01:06:40.201Z,1.90
2023-01-19T01:09:11.934Z,2.10
2023-01-19T01:11:42.898Z,2.25
2023-01-19T01:14:13.161Z,1.95
2023-01-19T01:16:40.246Z,1.92
2023-01-19T01:19:06.957Z,1.90
2023-01-19T01:21:34.663Z,2.05
2023-01-19T01:24:01.999Z,2.13
2023-01-19T01:26:28.558Z,1.73
2023-01-19T01:28:55.168Z,2.17
2023-01-19T01:31:21.716Z,2.00
2023-01-19T01:33:48.347Z,1.90
2023-01-19T01:36:14.983Z,1.85
2023-01-19T01:38:41.830Z,2.10
2023-01-19T01:41:09.219Z,1.90
2023-01-19T01:43:46.236Z,2.03
2023-01-19T01:46:16.287Z,1.73
2023-01-19T01:49:04.820Z,2.17
2023-01-19T01:51:37.548Z,2.05
2023-01-19T01:54:15.619Z,1.95
2023-01-19T01:56:48.394Z,2.00
2023-01-19T01:59:25.866Z,2.15
2023-01-19T02:02:21.538Z,2.00
2023-01-19T02:04:52.733Z,2.17
2023-01-19T02:07:45.501Z,2.10
2023-01-19T02:10:30.309Z,1.95
2023-01-19T02:13:16.443Z,2.13
2023-01-19T02:15:42.989Z,2.00
2023-01-19T02:18:09.521Z,2.17
2023-01-19T02:20:37.613Z,1.90
2023-01-19T02:23:08.406Z,2.28
2023-01-19T02:25:35.113Z,1.95
2023-01-19T02:28:02.104Z,2.58
2023-01-19T02:30:28.828Z,2.35
2023-01-19T02:32:55.458Z,2.17
2023-01-19T02:35:22.505Z,2.83
2023-01-19T02:37:49.153Z,2.78
2023-01-19T02:40:20.151Z,2.28
2023-01-19T02:42:50.384Z,2.80
2023-01-19T02:45:20.406Z,2.92
2023-01-19T02:47:49.341Z,2.58
2023-01-19T02:50:56.011Z,2.58
2023-01-19T02:53:40.722Z,3.28
2023-01-19T02:56:43.881Z,3.25
2023-01-19T02:59:40.200Z,2.97
2023-01-19T03:02:34.001Z,3.10
2023-01-19T03:05:05.049Z,3.03
2023-01-19T03:08:17.653Z,3.42
2023-01-19T03:11:06.750Z,4.13
2023-01-19T03:13:39.545Z,3.53
2023-01-19T03:16:12.275Z,3.63
2023-01-19T03:18:42.848Z,3.75
2023-01-19T03:21:10.393Z,3.80
2023-01-19T03:23:38.860Z,3.53
2023-01-19T03:26:08.873Z,3.67
2023-01-19T03:28:36.443Z,3.70
2023-01-19T03:31:07.229Z,3.85
2023-01-19T03:33:37.291Z,4.00
2023-01-19T03:36:08.926Z,3.50
2023-01-19T03:38:37.597Z,4.07
2023-01-19T03:41:11.413Z,4.53
2023-01-19T03:43:39.247Z,4.20
2023-01-19T03:46:06.420Z,4.63
2023-01-19T03:48:33.771Z,4.57
2023-01-19T03:51:08.059Z,4.38
2023-01-19T03:53:34.799Z,4.85
2023-01-19T03:56:01.510Z,4.93
2023-01-19T03:58:28.542Z,4.35
2023-01-19T04:00:55.199Z,4.60
2023-01-19T04:03:21.851Z,4.25
2023-01-19T04:05:48.411Z,4.45
2023-01-19T04:08:15.171Z,4.57
2023-01-19T04:10:41.782Z,4.45
2023-01-19T04:13:08.589Z,4.88
2023-01-19T04:15:35.222Z,4.72
2023-01-19T04:18:01.947Z,4.88
2023-01-19T04:20:28.912Z,5.10
2023-01-19T04:22:59.559Z,5.07
2023-01-19T04:25:26.702Z,4.68
2023-01-19T04:27:55.081Z,5.38
2023-01-19T04:30:22.673Z,4.90
2023-01-19T04:32:49.389Z,5.60
2023-01-19T04:35:17.036Z,6.22
2023-01-19T04:37:45.035Z,5.63
2023-01-19T04:40:12.001Z,5.72
2023-01-19T04:42:38.538Z,5.97
2023-01-19T04:45:05.293Z,6.03
2023-01-19T04:47:31.877Z,6.53
2023-01-19T04:49:58.433Z,6.70
2023-01-19T04:52:25.718Z,6.72
2023-01-19T04:54:52.824Z,6.40
2023-01-19T04:57:19.551Z,6.65
2023-01-19T04:59:46.107Z,6.65
2023-01-19T05:02:12.698Z,6.68
2023-01-19T05:04:39.272Z,7.40
2023-01-19T05:07:05.813Z,6.78
2023-01-19T05:09:32.492Z,6.75
2023-01-19T05:11:58.990Z,7.35
2023-01-19T05:14:25.582Z,7.43
2023-01-19T05:16:52.134Z,7.20
2023-01-19T05:19:18.747Z,6.93
2023-01-19T05:21:45.331Z,7.53
2023-01-19T05:24:11.812Z,7.15
2023-01-19T05:26:38.779Z,6.97
2023-01-19T05:29:05.539Z,8.30
2023-01-19T05:31:32.239Z,8.60
2023-01-19T05:33:58.843Z,8.05
2023-01-19T05:36:25.458Z,8.40
2023-01-19T05:38:52.261Z,8.43
2023-01-19T05:41:21.695Z,8.65
2023-01-19T05:43:48.259Z,9.02
2023-01-19T05:46:14.912Z,9.25
2023-01-19T05:48:41.538Z,8.93
2023-01-19T05:51:08.545Z,8.70
2023-01-19T05:53:35.108Z,8.68
2023-01-19T05:56:08.506Z,9.63
2023-01-19T05:58:36.485Z,9.52
2023-01-19T06:01:05.647Z,9.10
2023-01-19T06:03:33.222Z,9.02
2023-01-19T06:06:00.451Z,10.40
2023-01-19T06:08:27.266Z,8.52
2023-01-19T06:10:53.887Z,9.70
2023-01-19T06:13:20.655Z,9.15
2023-01-19T06:15:47.243Z,10.38
2023-01-19T06:18:16.952Z,10.15
2023-01-19T06:20:43.522Z,9.90
2023-01-19T06:23:10.807Z,10.73
2023-01-19T06:25:37.386Z,11.38
2023-01-19T06:28:04.119Z,10.30
2023-01-19T06:30:30.663Z,10.48
2023-01-19T06:32:57.198Z,10.85
2023-01-19T06:35:23.779Z,11.07
2023-01-19T06:37:50.972Z,10.10
2023-01-19T06:40:17.814Z,10.40
2023-01-19T06:42:44.335Z,11.05
2023-01-19T06:45:11.205Z,10.80
2023-01-19T06:47:37.914Z,9.93
2023-01-19T06:50:04.783Z,10.88
2023-01-19T06:52:31.299Z,11.15
2023-01-19T06:54:57.908Z,10.27
2023-01-19T06:57:25.899Z,10.32
2023-01-19T06:59:53.001Z,11.00
2023-01-19T07:02:26.113Z,10.98
2023-01-19T07:04:54.587Z,10.65
2023-01-19T07:07:21.207Z,10.70
2023-01-19T07:09:48.178Z,10.68
2023-01-19T07:12:14.810Z,12.05
2023-01-19T07:14:42.335Z,11.20
2023-01-19T07:17:08.946Z,12.02
2023-01-19T07:19:35.829Z,10.80
2023-01-19T07:22:03.236Z,10.55
2023-01-19T07:24:34.372Z,12.13
2023-01-19T07:27:00.996Z,10.95
2023-01-19T07:29:27.592Z,10.48
2023-01-19T07:31:54.769Z,9.88
2023-01-19T07:34:21.587Z,11.00
2023-01-19T07:36:48.603Z,10.85
2023-01-19T07:39:15.843Z,10.45
2023-01-19T07:41:42.404Z,11.05
2023-01-19T07:44:08.961Z,9.85
2023-01-19T07:46:35.517Z,10.88
2023-01-19T07:49:01.994Z,9.50
2023-01-19T07:51:28.532Z,9.57
2023-01-19T07:53:55.407Z,9.68
2023-01-19T07:56:23.408Z,10.43
2023-01-19T07:58:52.457Z,10.07
2023-01-19T08:01:19.241Z,10.02
2023-01-19T08:03:47.789Z,10.07
2023-01-19T08:06:23.440Z,9.13
2023-01-19T08:08:50.401Z,9.30
2023-01-19T08:11:17.050Z,9.93
2023-01-19T08:13:43.787Z,9.30
2023-01-19T08:16:10.626Z,9.60
2023-01-19T08:18:37.315Z,9.25
2023-01-19T08:21:04.967Z,8.45
2023-01-19T08:23:31.639Z,8.43
2023-01-19T08:25:58.334Z,9.25
2023-01-19T08:28:26.038Z,9.23
2023-01-19T08:30:55.598Z,9.23
2023-01-19T08:33:23.362Z,8.20
2023-01-19T08:35:52.585Z,8.23
2023-01-19T08:38:19.312Z,9.23
2023-01-19T08:40:46.105Z,8.25
2023-01-19T08:43:15.065Z,8.00
2023-01-19T08:45:48.329Z,8.88
2023-01-19T08:48:16.986Z,8.52
2023-01-19T08:50:46.321Z,9.00
2023-01-19T08:53:12.972Z,8.15
2023-01-19T08:55:39.940Z,8.13
2023-01-19T08:58:09.291Z,8.38
2023-01-19T09:00:39.839Z,8.05
2023-01-19T09:03:08.103Z,7.97
2023-01-19T09:05:37.498Z,8.98
2023-01-19T09:08:06.483Z,9.70
2023-01-19T09:10:36.141Z,8.20
2023-01-19T09:13:08.564Z,7.72
2023-01-19T09:15:37.693Z,7.75
2023-01-19T09:18:07.021Z,7.82
2023-01-19T09:20:36.285Z,7.80
2023-01-19T09:23:03.054Z,8.23
2023-01-19T09:25:29.860Z,7.75
2023-01-19T09:27:56.472Z,7.50
2023-01-19T09:30:23.094Z,7.75
2023-01-19T09:32:49.711Z,7.85
2023-01-19T09:35:16.590Z,7.15
2023-01-19T09:37:47.156Z,7.85
2023-01-19T09:40:15.863Z,7.22
2023-01-19T09:42:45.448Z,7.47
2023-01-19T09:45:48.333Z,6.65
2023-01-19T09:48:23.979Z,6.25
2023-01-19T09:50:50.678Z,7.20
2023-01-19T09:53:32.583Z,6.55
2023-01-19T09:55:59.335Z,6.50
2023-01-19T09:58:26.249Z,7.20
2023-01-19T10:01:01.850Z,7.28
2023-01-19T10:03:29.085Z,6.47
2023-01-19T10:05:59.785Z,7.03
2023-01-19T10:08:43.337Z,6.75
2023-01-19T10:11:52.037Z,7.57
2023-01-19T10:17:05.536Z,7.50
2023-01-19T10:19:38.334Z,6.35
2023-01-19T10:22:25.229Z,6.57
2023-01-19T10:24:55.100Z,6.97
2023-01-19T10:27:28.946Z,5.85
2023-01-19T10:29:57.020Z,6.50
2023-01-19T10:32:44.542Z,6.30
2023-01-19T10:35:24.754Z,7.05
2023-01-19T10:37:56.086Z,6.88
2023-01-19T10:40:51.098Z,6.28
2023-01-19T10:43:36.593Z,7.07
2023-01-19T10:46:07.516Z,6.63
2023-01-19T10:48:42.002Z,6.30
2023-01-19T10:51:10.515Z,6.38
2023-01-19T10:53:37.467Z,6.22
2023-01-19T10:56:13.356Z,6.25
2023-01-19T10:58:40.603Z,6.60
2023-01-19T11:01:37.334Z,6.70
2023-01-19T11:04:25.719Z,6.50
2023-01-19T11:06:52.345Z,6.90
2023-01-19T11:09:21.376Z,6.22
2023-01-19T11:11:52.665Z,6.65
2023-01-19T11:14:22.983Z,6.35
2023-01-19T11:16:58.983Z,7.13
2023-01-19T11:19:28.559Z,6.35
2023-01-19T11:27:03.834Z,6.35
2023-01-19T11:29:30.569Z,6.57
2023-01-19T11:32:10.652Z,6.20
2023-01-19T11:34:38.866Z,6.38
2023-01-19T11:37:29.841Z,6.72
2023-01-19T11:39:58.803Z,6.28
2023-01-19T11:42:28.474Z,6.07
2023-01-19T11:44:59.255Z,6.95
2023-01-19T11:47:29.001Z,6.63
2023-01-19T11:50:06.045Z,6.25
2023-01-19T11:52:44.904Z,6.38
2023-01-19T11:55:21.547Z,6.85
2023-01-19T11:57:50.176Z,6.90
2023-01-19T12:00:24.147Z,7.17
2023-01-19T12:02:54.879Z,6.82
2023-01-19T12:05:22.828Z,7.47
2023-01-19T12:07:50.043Z,6.95
2023-01-19T12:10:25.233Z,7.20
2023-01-19T12:12:52.897Z,6.65
2023-01-19T12:15:42.244Z,6.82
2023-01-19T12:18:16.328Z,6.28
2023-01-19T12:20:49.615Z,6.65
2023-01-19T12:23:29.226Z,6.90
2023-01-19T12:26:14.352Z,6.57
2023-01-19T12:28:43.478Z,6.50
2023-01-19T12:31:10.507Z,6.60
2023-01-19T12:33:38.677Z,7.00
2023-01-19T12:36:34.018Z,6.75
2023-01-19T12:39:14.138Z,6.45
2023-01-19T12:41:41.519Z,6.95
2023-01-19T12:44:16.085Z,7.90
2023-01-19T12:47:05.317Z,7.35
2023-01-19T12:49:38.099Z,7.30
2023-01-19T12:52:17.107Z,6.15
2023-01-19T12:54:57.534Z,6.78
2023-01-19T12:57:32.011Z,7.45
2023-01-19T13:00:01.759Z,7.45
2023-01-19T13:02:47.361Z,6.70
2023-01-19T13:05:33.194Z,6.90
2023-01-19T13:08:03.470Z,6.65
2023-01-19T13:11:09.648Z,7.32
2023-01-19T13:13:40.237Z,7.22
2023-01-19T13:16:19.079Z,7.00
2023-01-19T13:18:53.796Z,7.57
2023-01-19T13:21:28.021Z,7.45
2023-01-19T13:24:01.959Z,7.78
2023-01-19T13:26:32.236Z,6.95
2023-01-19T13:29:05.693Z,7.50
2023-01-19T13:31:40.952Z,7.63
2023-01-19T13:34:19.604Z,8.10
2023-01-19T13:36:48.318Z,7.67
2023-01-19T13:39:20.234Z,7.60
2023-01-19T13:41:47.338Z,7.43
2023-01-19T13:44:29.602Z,7.03
2023-01-19T13:46:56.958Z,7.47
2023-01-19T13:49:29.428Z,7.50
2023-01-19T13:52:05.835Z,6.93
2023-01-19T13:54:32.489Z,7.22
2023-01-19T13:56:59.428Z,7.45
2023-01-19T13:59:26.152Z,7.80
2023-01-19T14:01:54.710Z,7.35
2023-01-19T14:04:30.260Z,7.28
2023-01-19T14:06:59.797Z,7.88
2023-01-19T14:12:15.706Z,7.57
2023-01-19T14:17:27.925Z,7.72
2023-01-19T14:19:57.355Z,7.30
2023-01-19T14:22:38.641Z,7.30
2023-01-19T14:25:31.032Z,7.10
2023-01-19T14:28:36.037Z,7.15
2023-01-19T14:31:16.823Z,7.80
2023-01-19T14:33:47.160Z,7.97
2023-01-19T14:36:15.111Z,7.75
2023-01-19T14:38:46.578Z,7.93
2023-01-19T14:41:24.056Z,7.28
2023-01-19T14:43:50.667Z,7.60
2023-01-19T14:46:20.912Z,8.32
2023-01-19T14:48:48.905Z,7.50
2023-01-19T14:51:18.988Z,8.55
2023-01-19T14:53:55.628Z,7.55
2023-01-19T14:56:31.603Z,7.60
2023-01-19T14:59:00.336Z,7.45
2023-01-19T15:01:31.420Z,8.63
2023-01-19T15:03:58.709Z,8.25
2023-01-19T15:06:26.331Z,7.60
2023-01-19T15:08:53.735Z,8.05
2023-01-19T15:11:32.633Z,8.60
2023-01-19T15:13:59.965Z,8.57
2023-01-19T15:16:28.291Z,8.60
2023-01-19T15:19:48.187Z,8.25
2023-01-19T15:22:14.953Z,8.30
2023-01-19T15:24:41.550Z,9.18
2023-01-19T15:27:12.320Z,8.27
2023-01-19T15:29:40.580Z,8.45
2023-01-19T15:32:13.287Z,8.40
2023-01-19T15:34:40.101Z,9.00
2023-01-19T15:37:07.099Z,8.27
2023-01-19T15:39:34.127Z,8.30
2023-01-19T15:42:00.981Z,9.60
2023-01-19T15:44:27.508Z,8.43
2023-01-19T15:46:54.790Z,8.20
2023-01-19T15:49:21.509Z,7.85
2023-01-19T15:51:48.168Z,7.50
2023-01-19T15:54:19.648Z,6.65
2023-01-19T15:58:15.331Z,7.18
2023-01-19T16:00:17.265Z,7.60
2023-01-19T16:02:43.894Z,7.57
2023-01-19T16:05:11.030Z,7.38
2023-01-19T16:07:38.269Z,6.80
2023-01-19T16:10:09.610Z,6.93
2023-01-19T16:12:36.991Z,7.35
2023-01-19T16:15:04.086Z,6.80
2023-01-19T16:17:30.874Z,7.32
2023-01-19T16:19:57.677Z,7.10
2023-01-19T16:22:24.362Z,7.30
2023-01-19T16:24:56.682Z,7.32
2023-01-19T16:27:24.175Z,7.40
2023-01-19T16:29:52.182Z,7.45
2023-01-19T16:32:19.271Z,7.30
2023-01-19T16:34:46.036Z,7.30
2023-01-19T16:37:16.377Z,6.38
2023-01-19T16:39:45.418Z,6.50
2023-01-19T16:42:13.045Z,6.57
2023-01-19T16:44:39.790Z,7.63
2023-01-19T16:47:06.421Z,6.70
2023-01-19T16:49:33.096Z,6.15
2023-01-19T16:52:00.124Z,6.70
2023-01-19T16:54:28.357Z,6.90
2023-01-19T16:56:56.691Z,5.72
2023-01-19T16:59:24.550Z,6.20
2023-01-19T17:01:52.111Z,7.07
2023-01-19T17:04:20.391Z,6.25
2023-01-19T17:06:47.208Z,6.95
2023-01-19T17:09:15.017Z,7.75
2023-01-19T17:11:42.215Z,7.35
2023-01-19T17:14:12.797Z,6.57
2023-01-19T17:16:39.600Z,6.40
2023-01-19T17:19:07.401Z,6.78
2023-01-19T17:21:35.113Z,6.90
2023-01-19T17:24:02.162Z,8.00
2023-01-19T17:26:46.017Z,7.10
2023-01-19T17:29:12.723Z,9.40
2023-01-19T17:31:39.743Z,8.00
2023-01-19T17:34:07.017Z,7.45
2023-01-19T17:36:34.311Z,8.27
2023-01-19T17:39:06.181Z,6.90
2023-01-19T17:41:35.621Z,6.97
2023-01-19T17:46:30.619Z,5.90
2023-01-19T17:48:59.451Z,6.90
2023-01-19T17:51:26.948Z,6.57
2023-01-19T17:54:01.804Z,7.05
2023-01-19T17:56:30.432Z,6.85
2023-01-19T17:58:57.837Z,6.67
2023-01-19T18:01:29.919Z,6.30
2023-01-19T18:03:57.851Z,6.28
2023-01-19T18:06:25.005Z,6.32
2023-01-19T18:08:52.741Z,6.20
2023-01-19T18:11:20.411Z,6.72
2023-01-19T18:13:48.500Z,6.63
2023-01-19T18:16:17.510Z,6.65
2023-01-19T18:18:44.490Z,6.25
2023-01-19T18:21:13.126Z,6.97
2023-01-19T18:23:40.052Z,7.13
2023-01-19T18:26:08.806Z,8.18
2023-01-19T18:28:35.790Z,7.65
2023-01-19T18:31:03.125Z,7.82
2023-01-19T18:33:31.492Z,7.93
2023-01-19T18:35:58.102Z,8.43
2023-01-19T18:38:24.854Z,8.52
2023-01-19T18:41:05.045Z,8.20
2023-01-19T18:43:32.525Z,8.57
2023-01-19T18:45:59.448Z,8.32
2023-01-19T18:48:26.247Z,9.40
2023-01-19T18:50:53.428Z,9.10
2023-01-19T18:53:20.395Z,8.55
2023-01-19T18:55:55.096Z,10.15
2023-01-19T18:58:22.314Z,8.57
2023-01-19T19:00:49.580Z,9.57
2023-01-19T19:03:17.071Z,8.90
2023-01-19T19:05:44.012Z,8.73
2023-01-19T19:08:10.613Z,9.55
2023-01-19T19:10:37.346Z,8.95
2023-01-19T19:13:04.144Z,9.23
2023-01-19T19:15:32.665Z,8.80
2023-01-19T19:17:59.740Z,9.45
2023-01-19T19:20:26.529Z,9.32
2023-01-19T19:22:53.115Z,8.52
2023-01-19T19:25:19.786Z,8.35
2023-01-19T19:27:51.022Z,8.60
2023-01-19T19:30:18.267Z,8.27
2023-01-19T19:32:45.111Z,9.55
2023-01-19T19:35:12.579Z,8.13
2023-01-19T19:37:39.258Z,8.90
2023-01-19T19:40:06.652Z,9.25
2023-01-19T19:42:34.596Z,8.90
2023-01-19T19:45:01.257Z,8.15
2023-01-19T19:47:30.439Z,8.70
2023-01-19T19:49:59.158Z,8.10
2023-01-19T19:52:27.740Z,8.97
2023-01-19T19:54:54.617Z,9.05
2023-01-19T19:57:21.205Z,8.50
2023-01-19T19:59:47.810Z,8.57
2023-01-19T20:02:14.538Z,8.10
2023-01-19T20:04:41.347Z,7.95
2023-01-19T20:07:08.182Z,8.05
2023-01-19T20:09:36.450Z,7.00
2023-01-19T20:12:03.447Z,7.30
2023-01-19T20:14:30.072Z,7.38
2023-01-19T20:16:56.704Z,6.88
2023-01-19T20:19:23.369Z,7.05
2023-01-19T20:21:50.115Z,7.68
2023-01-19T20:24:18.749Z,7.47
2023-01-19T20:26:51.840Z,7.83
2023-01-19T20:29:19.568Z,6.68
2023-01-19T20:31:51.831Z,7.40
2023-01-19T20:34:21.898Z,6.90
2023-01-19T20:36:50.369Z,8.98
2023-01-19T20:39:19.752Z,8.68
2023-01-19T20:41:47.455Z,9.38
2023-01-19T20:44:19.242Z,8.18
2023-01-19T20:46:46.561Z,7.68
2023-01-19T20:49:13.456Z,7.80
2023-01-19T20:51:43.504Z,8.45
2023-01-19T20:54:11.391Z,7.60
2023-01-19T20:56:38.202Z,8.02
2023-01-19T20:59:04.799Z,8.43
2023-01-19T21:01:31.730Z,7.13
2023-01-19T21:03:58.621Z,7.63
2023-01-19T21:06:25.815Z,7.93
2023-01-19T21:08:52.737Z,6.80
2023-01-19T21:11:21.103Z,7.57
2023-01-19T21:13:48.405Z,6.80
2023-01-19T21:16:15.695Z,6.85
2023-01-19T21:18:42.497Z,7.00
2023-01-19T21:21:20.863Z,6.60
2023-01-19T21:24:00.425Z,6.78
2023-01-19T21:26:29.835Z,7.50
2023-01-19T21:31:27.702Z,5.93
2023-01-19T21:33:55.143Z,6.15
2023-01-19T21:36:22.564Z,6.68
2023-01-19T21:38:51.422Z,6.35
2023-01-19T21:41:18.600Z,6.53
2023-01-19T21:43:46.278Z,5.68
2023-01-19T21:46:17.745Z,6.32
2023-01-19T21:48:45.858Z,5.88
2023-01-19T21:51:13.332Z,5.05
2023-01-19T21:53:40.472Z,4.95
2023-01-19T21:56:09.452Z,4.93
2023-01-19T21:58:36.340Z,4.45
2023-01-19T22:01:05.348Z,4.45
2023-01-19T22:03:32.322Z,4.55
2023-01-19T22:06:04.465Z,4.07
2023-01-19T22:08:31.067Z,3.85
2023-01-19T22:11:04.962Z,3.72
2023-01-19T22:13:32.354Z,3.63
2023-01-19T22:16:03.299Z,3.47
2023-01-19T22:18:29.940Z,3.63
2023-01-19T22:20:56.972Z,3.85
2023-01-19T22:23:23.564Z,4.07
2023-01-19T22:25:50.203Z,4.15
2023-01-19T22:28:16.796Z,4.20
2023-01-19T22:30:43.682Z,3.85
2023-01-19T22:33:10.340Z,4.22
2023-01-19T22:35:36.987Z,4.03
2023-01-19T22:38:03.474Z,4.45
2023-01-19T22:40:30.036Z,5.50
2023-01-19T22:42:56.621Z,4.20
2023-01-19T22:45:23.262Z,4.63
2023-01-19T22:47:49.841Z,4.40
2023-01-19T22:50:16.569Z,5.45
2023-01-19T22:52:43.255Z,4.97
2023-01-19T22:55:10.061Z,4.88
2023-01-19T22:57:37.440Z,5.70
2023-01-19T23:00:08.603Z,4.75
2023-01-19T23:02:35.250Z,6.05
2023-01-19T23:05:01.840Z,5.40
2023-01-19T23:07:28.420Z,6.47
2023-01-19T23:09:54.967Z,7.18
2023-01-19T23:12:21.484Z,6.60
2023-01-19T23:14:48.022Z,7.65
2023-01-19T23:17:14.674Z,7.25
2023-01-19T23:19:41.257Z,8.77
2023-01-19T23:22:07.824Z,7.95
2023-01-19T23:24:34.458Z,7.93
2023-01-19T23:27:02.410Z,8.65
2023-01-19T23:29:28.921Z,8.10
2023-01-19T23:31:56.293Z,8.65
2023-01-19T23:34:22.873Z,9.02
2023-01-19T23:36:49.472Z,8.32
2023-01-19T23:39:18.474Z,7.93
2023-01-19T23:41:45.369Z,8.48
2023-01-19T23:44:11.996Z,7.70
2023-01-19T23:46:38.681Z,7.63
2023-01-19T23:49:05.759Z,7.20
2023-01-19T23:51:33.102Z,7.22
2023-01-19T23:54:00.276Z,8.00
2023-01-19T23:56:29.990Z,7.20
2023-01-19T23:59:04.581Z,7.82
